Time;durP1;ratioP1;P1;durP2;ratioP2;P2;SDS_P1;SDS_P2;PMS_P1;PMS_P2;Temp;Humidity;BMP_temperature;BMP_pressure;BME280_temperature;BME280_humidity;BME280_pressure;Samples;Min_cycle;Max_cycle;Signal;HPM_P1;HPM_P2
2022/09/25 00:01:41;;;;;;;21.73;4.33;;;8.80;99.90;;;;;;4978086;28;20057;-74
2022/09/25 00:04:07;;;;;;;17.05;4.15;;;8.80;99.90;;;;;;4995486;28;20042;-74
2022/09/25 00:06:33;;;;;;;16.92;4.22;;;8.80;99.90;;;;;;5010412;28;20057;-75
2022/09/25 00:09:00;;;;;;;24.77;4.95;;;8.80;99.90;;;;;;4994074;28;20057;-75
2022/09/25 00:11:29;;;;;;;20.70;5.13;;;8.80;99.90;;;;;;4994564;28;20509;-75
2022/09/25 00:13:57;;;;;;;14.23;4.13;;;8.70;99.90;;;;;;4994292;28;20054;-75
2022/09/25 00:16:26;;;;;;;24.50;5.03;;;8.70;99.90;;;;;;4994277;28;20062;-75
2022/09/25 00:21:37;;;;;;;16.48;5.00;;;8.70;99.90;;;;;;4995299;28;20054;-76
2022/09/25 00:24:05;;;;;;;19.05;5.15;;;8.70;99.90;;;;;;5010329;28;20050;-75
2022/09/25 00:26:34;;;;;;;19.98;4.80;;;8.70;99.90;;;;;;5010265;28;20050;-75
2022/09/25 00:29:02;;;;;;;16.13;4.28;;;8.70;99.90;;;;;;4995074;28;20057;-74
2022/09/25 00:31:29;;;;;;;18.20;5.55;;;8.70;99.90;;;;;;4994875;28;20057;-74
2022/09/25 00:34:00;;;;;;;20.08;5.88;;;8.70;99.90;;;;;;4994991;28;20038;-74
2022/09/25 00:36:26;;;;;;;19.00;5.15;;;8.70;99.90;;;;;;5009668;28;20088;-74
2022/09/25 00:38:53;;;;;;;25.73;5.78;;;8.60;99.90;;;;;;4995276;28;20133;-74
2022/09/25 00:41:21;;;;;;;23.10;5.28;;;8.60;99.90;;;;;;4993828;28;20047;-76
2022/09/25 00:43:50;;;;;;;21.88;5.78;;;8.70;99.90;;;;;;4993193;28;20063;-75
2022/09/25 00:46:19;;;;;;;22.02;4.68;;;8.60;99.90;;;;;;4994758;28;20054;-75
2022/09/25 00:48:48;;;;;;;18.75;4.75;;;8.70;99.90;;;;;;4995099;28;20108;-77
2022/09/25 00:51:16;;;;;;;19.92;5.50;;;8.60;99.90;;;;;;4993656;28;20050;-75
2022/09/25 00:53:41;;;;;;;23.63;5.03;;;8.70;99.90;;;;;;4994889;28;20042;-75
2022/09/25 00:56:10;;;;;;;15.85;4.18;;;8.60;99.90;;;;;;5009702;28;20422;-74
2022/09/25 00:58:38;;;;;;;13.43;4.00;;;8.60;99.90;;;;;;4994337;28;20050;-73
2022/09/25 01:01:04;;;;;;;17.95;4.32;;;8.50;99.90;;;;;;4993752;28;20051;-75
2022/09/25 01:03:30;;;;;;;16.25;3.58;;;8.40;99.90;;;;;;5009617;28;20378;-75
2022/09/25 01:05:59;;;;;;;26.63;4.57;;;8.50;99.90;;;;;;4994996;28;20050;-74
2022/09/25 01:08:27;;;;;;;17.65;4.07;;;8.40;99.90;;;;;;4993550;28;20100;-74
2022/09/25 01:10:53;;;;;;;12.23;3.65;;;8.40;99.90;;;;;;4994221;28;20148;-74
2022/09/25 01:13:19;;;;;;;15.35;3.90;;;8.40;99.90;;;;;;4994944;28;20078;-73
2022/09/25 01:16:06;;;;;;;17.03;4.53;;;8.30;99.90;;;;;;4993846;28;20049;-74
2022/09/25 01:19:14;;;;;;;19.33;3.85;;;8.20;99.90;;;;;;4994161;28;20061;-75
2022/09/25 01:22:03;;;;;;;17.23;3.75;;;8.30;99.90;;;;;;4979505;28;20050;-74
2022/09/25 01:24:46;;;;;;;15.00;3.65;;;8.20;99.90;;;;;;4993390;28;20046;-75
2022/09/25 01:27:23;;;;;;;16.20;3.58;;;8.10;99.90;;;;;;4994837;28;20063;-75
2022/09/25 01:29:55;;;;;;;;;;;8.10;99.90;;;;;;4997332;28;20090;-75
2022/09/25 01:32:40;;;;;;;12.63;3.95;;;8.10;99.90;;;;;;4993046;28;19921;-75
2022/09/25 01:35:09;;;;;;;16.13;3.75;;;8.10;99.90;;;;;;4992844;28;20104;-75
2022/09/25 01:37:50;;;;;;;11.45;3.97;;;8.00;99.90;;;;;;5008777;28;20100;-75
2022/09/25 01:40:22;;;;;;;25.10;5.18;;;8.00;99.90;;;;;;4993341;28;20046;-75
2022/09/25 01:42:54;;;;;;;15.48;5.05;;;7.90;99.90;;;;;;4993862;28;20073;-75
2022/09/25 01:45:51;;;;;;;16.20;3.72;;;7.90;99.90;;;;;;4993154;28;20046;-78
2022/09/25 01:48:21;;;;;;;15.88;4.40;;;7.80;99.90;;;;;;5009201;28;20069;-75
2022/09/25 01:51:02;;;;;;;18.33;5.18;;;7.70;99.90;;;;;;4993385;28;20097;-74
2022/09/25 01:53:40;;;;;;;15.10;4.10;;;7.80;99.90;;;;;;4992395;28;20081;-75
2022/09/25 01:56:36;;;;;;;22.08;4.45;;;7.70;99.90;;;;;;4994874;28;20038;-75
2022/09/25 01:59:11;;;;;;;15.23;4.00;;;7.70;99.90;;;;;;4992896;28;20062;-75
2022/09/25 02:01:41;;;;;;;16.25;4.18;;;7.70;99.90;;;;;;4994211;28;20660;-76
2022/09/25 02:04:21;;;;;;;15.55;3.70;;;7.70;99.90;;;;;;4993573;28;20074;-77
2022/09/25 02:06:49;;;;;;;16.02;3.92;;;7.60;99.90;;;;;;4976555;28;20125;-76
2022/09/25 02:09:29;;;;;;;20.15;4.20;;;7.60;99.90;;;;;;4993309;28;20050;-75
2022/09/25 02:12:01;;;;;;;13.63;3.30;;;7.60;99.90;;;;;;4992971;28;20046;-76
2022/09/25 02:14:36;;;;;;;13.82;4.10;;;7.60;99.90;;;;;;5009304;28;20047;-75
2022/09/25 02:17:09;;;;;;;17.77;4.32;;;7.60;99.90;;;;;;4993741;28;20402;-74
2022/09/25 02:22:29;;;;;;;22.10;3.80;;;7.50;99.90;;;;;;4992567;28;20049;-75
2022/09/25 02:25:14;;;;;;;19.05;3.78;;;7.50;99.90;;;;;;4993389;28;20065;-76
2022/09/25 02:27:40;;;;;;;16.60;4.00;;;7.50;99.90;;;;;;4993850;28;20092;-74
2022/09/25 02:30:06;;;;;;;17.80;3.93;;;7.50;99.90;;;;;;4975992;28;20397;-74
2022/09/25 02:32:32;;;;;;;16.60;4.18;;;7.40;99.90;;;;;;4992580;28;20558;-74
2022/09/25 02:34:59;;;;;;;14.68;3.35;;;7.50;99.90;;;;;;4997120;28;20129;-74
2022/09/25 02:37:25;;;;;;;16.15;4.30;;;7.50;99.90;;;;;;4996057;28;20454;-77
2022/09/25 02:39:57;;;;;;;16.95;4.38;;;7.40;99.90;;;;;;4997662;28;20106;-74
2022/09/25 02:42:29;;;;;;;16.70;4.10;;;7.40;99.90;;;;;;4996246;28;20479;-76
2022/09/25 02:45:00;;;;;;;20.10;4.63;;;7.40;99.90;;;;;;5012577;28;20467;-74
2022/09/25 02:47:35;;;;;;;18.92;3.95;;;7.40;99.90;;;;;;4979931;28;20085;-77
2022/09/25 02:50:04;;;;;;;11.52;3.97;;;7.40;99.90;;;;;;4996583;28;20097;-75
2022/09/25 02:52:52;;;;;;;17.52;3.88;;;7.40;99.90;;;;;;4996641;28;20121;-77
2022/09/25 02:55:28;;;;;;;19.55;3.90;;;7.40;99.90;;;;;;4997317;28;20046;-75
2022/09/25 02:58:15;;;;;;;16.60;4.43;;;7.40;99.90;;;;;;4997083;28;20046;-76
2022/09/25 03:00:45;;;;;;;14.77;4.45;;;7.40;99.90;;;;;;4979458;28;20785;-76
2022/09/25 03:03:14;;;;;;;15.30;3.83;;;7.30;99.90;;;;;;4979211;28;20042;-75
2022/09/25 03:05:41;;;;;;;18.02;3.97;;;7.30;99.90;;;;;;4995263;28;20046;-77
2022/09/25 03:10:51;;;;;;;15.38;4.22;;;7.40;99.90;;;;;;4995740;28;20100;-75
2022/09/25 03:13:30;;;;;;;12.70;3.95;;;7.30;99.90;;;;;;4995675;28;20096;-74
2022/09/25 03:16:00;;;;;;;15.80;3.53;;;7.20;99.90;;;;;;5011723;28;20082;-74
2022/09/25 03:18:27;;;;;;;17.02;4.88;;;7.30;99.90;;;;;;5012269;28;20406;-74
2022/09/25 03:20:53;;;;;;;16.02;4.43;;;7.30;99.90;;;;;;4995095;28;20054;-75
2022/09/25 03:23:19;;;;;;;21.90;4.07;;;7.20;99.90;;;;;;4995786;28;20177;-75
2022/09/25 03:25:46;;;;;;;17.83;4.17;;;7.20;99.90;;;;;;4995006;28;20552;-75
2022/09/25 03:28:13;;;;;;;19.45;4.22;;;7.20;99.90;;;;;;4996034;28;20054;-75
2022/09/25 03:30:39;;;;;;;14.90;3.85;;;7.20;99.90;;;;;;4996382;28;20081;-76
2022/09/25 03:33:12;;;;;;;20.83;4.30;;;7.30;99.90;;;;;;4995233;28;20052;-77
2022/09/25 03:35:38;;;;;;;10.93;3.45;;;7.20;99.90;;;;;;4996066;28;20089;-76
2022/09/25 03:38:07;;;;;;;17.70;4.10;;;7.20;99.90;;;;;;4995282;28;20080;-76
2022/09/25 03:40:33;;;;;;;11.27;3.63;;;7.20;99.90;;;;;;4996153;28;20038;-75
2022/09/25 03:42:58;;;;;;;12.55;3.42;;;7.20;99.90;;;;;;4995265;28;20058;-75
2022/09/25 03:45:24;;;;;;;14.63;3.25;;;7.20;99.90;;;;;;4997953;28;20050;-75
2022/09/25 03:47:50;;;;;;;18.88;4.38;;;7.10;99.90;;;;;;5002453;28;20050;-75
2022/09/25 03:50:16;;;;;;;18.55;4.55;;;7.10;99.90;;;;;;5000153;28;20050;-74
2022/09/25 03:52:41;;;;;;;19.00;3.60;;;7.20;99.90;;;;;;4997710;28;20054;-75
2022/09/25 03:55:07;;;;;;;15.05;3.90;;;7.20;99.90;;;;;;4999866;28;20053;-73
2022/09/25 03:57:33;;;;;;;17.60;3.97;;;7.10;99.90;;;;;;5012817;28;20085;-76
2022/09/25 04:00:00;;;;;;;19.40;3.55;;;7.10;99.90;;;;;;4997505;28;20052;-76
2022/09/25 04:02:27;;;;;;;14.40;3.90;;;7.20;99.90;;;;;;4979336;28;20129;-74
2022/09/25 04:04:57;;;;;;;20.57;4.10;;;7.10;99.90;;;;;;4995723;28;20038;-75
2022/09/25 04:07:23;;;;;;;13.38;3.45;;;7.10;99.90;;;;;;4995792;28;20386;-75
2022/09/25 04:09:49;;;;;;;22.80;3.78;;;7.10;99.90;;;;;;4994149;28;20053;-76
2022/09/25 04:12:16;;;;;;;11.50;3.08;;;7.10;99.90;;;;;;4994290;28;20088;-75
2022/09/25 04:14:44;;;;;;;14.02;4.18;;;7.10;99.90;;;;;;4995418;28;20054;-75
2022/09/25 04:17:10;;;;;;;15.02;3.78;;;7.10;99.90;;;;;;4995468;28;20107;-76
2022/09/25 04:19:36;;;;;;;17.23;3.75;;;7.10;99.90;;;;;;4977998;28;20062;-75
2022/09/25 04:22:02;;;;;;;16.42;3.83;;;7.20;99.90;;;;;;4995359;28;20104;-75
2022/09/25 04:27:11;;;;;;;15.32;3.78;;;7.10;99.90;;;;;;4995739;28;20386;-75
2022/09/25 04:29:37;;;;;;;22.13;3.42;;;7.10;99.90;;;;;;4995644;28;20046;-75
2022/09/25 04:34:47;;;;;;;13.95;3.60;;;7.10;99.90;;;;;;4995018;28;20050;-75
2022/09/25 04:37:13;;;;;;;17.50;3.45;;;7.00;99.90;;;;;;4995533;28;20041;-75
2022/09/25 04:39:39;;;;;;;18.70;2.95;;;7.00;99.90;;;;;;4994970;28;20049;-76
2022/09/25 04:42:05;;;;;;;17.95;4.43;;;6.90;99.90;;;;;;4994851;28;20046;-76
2022/09/25 04:44:31;;;;;;;14.93;3.65;;;7.00;99.90;;;;;;4993510;28;20093;-75
2022/09/25 04:46:57;;;;;;;14.93;3.67;;;7.00;99.90;;;;;;4994750;28;20573;-75
2022/09/25 04:49:22;;;;;;;14.43;3.38;;;7.00;99.90;;;;;;4995517;28;20051;-77
2022/09/25 04:51:48;;;;;;;11.73;3.40;;;7.00;99.90;;;;;;4995119;28;20078;-75
2022/09/25 04:54:15;;;;;;;17.83;3.80;;;7.00;99.90;;;;;;4994184;28;20046;-75
2022/09/25 04:56:44;;;;;;;15.52;4.18;;;7.00;99.90;;;;;;4993386;28;20060;-74
2022/09/25 04:59:16;;;;;;;12.05;3.33;;;7.00;99.90;;;;;;4993254;28;20050;-75
2022/09/25 05:01:41;;;;;;;18.80;3.88;;;7.00;99.90;;;;;;4995400;28;20060;-75
2022/09/25 05:04:07;;;;;;;17.42;3.63;;;7.00;99.90;;;;;;4976646;28;20050;-75
2022/09/25 05:06:33;;;;;;;18.17;3.08;;;7.00;99.90;;;;;;4993161;28;20050;-75
2022/09/25 05:08:59;;;;;;;15.35;3.38;;;7.10;99.90;;;;;;4994700;28;20046;-75
2022/09/25 05:11:24;;;;;;;15.38;3.22;;;7.10;99.90;;;;;;4993387;28;20458;-76
2022/09/25 05:13:51;;;;;;;17.17;3.40;;;7.10;99.90;;;;;;4994204;28;20053;-76
2022/09/25 05:16:18;;;;;;;16.25;3.63;;;7.10;99.90;;;;;;5009996;28;20061;-76
2022/09/25 05:18:44;;;;;;;19.83;4.45;;;7.10;99.90;;;;;;4994307;28;20138;-76
2022/09/25 05:21:10;;;;;;;18.57;4.37;;;7.10;99.90;;;;;;4994223;28;20046;-76
2022/09/25 05:23:36;;;;;;;16.17;3.78;;;7.10;99.90;;;;;;4994168;28;20758;-76
2022/09/25 05:26:02;;;;;;;17.58;3.97;;;7.10;99.90;;;;;;4993048;28;20141;-76
2022/09/25 05:28:29;;;;;;;13.88;3.90;;;7.20;99.90;;;;;;4994749;28;20379;-77
2022/09/25 05:30:57;;;;;;;17.42;3.70;;;7.30;99.90;;;;;;4993510;28;20097;-76
2022/09/25 05:33:22;;;;;;;19.95;4.53;;;7.20;99.90;;;;;;4992757;28;20046;-77
2022/09/25 05:35:51;;;;;;;14.30;4.20;;;7.30;99.90;;;;;;4994408;28;20057;-76
2022/09/25 05:38:17;;;;;;;18.38;3.78;;;7.40;99.90;;;;;;4992963;28;20046;-76
2022/09/25 05:40:43;;;;;;;13.93;3.40;;;7.40;99.90;;;;;;4976669;28;20402;-79
2022/09/25 05:43:08;;;;;;;17.80;3.53;;;7.40;99.90;;;;;;4993680;28;20121;-76
2022/09/25 05:45:34;;;;;;;11.77;3.25;;;7.40;99.90;;;;;;4993649;28;20058;-77
2022/09/25 05:48:06;;;;;;;18.60;3.70;;;7.40;99.90;;;;;;4993886;28;20042;-76
2022/09/25 05:50:32;;;;;;;14.88;3.38;;;7.30;99.90;;;;;;4992845;28;20142;-77
2022/09/25 05:52:59;;;;;;;18.08;3.92;;;7.30;99.90;;;;;;4993655;28;20082;-77
2022/09/25 05:55:26;;;;;;;19.58;4.30;;;7.40;99.90;;;;;;5008801;28;20052;-76
2022/09/25 05:57:51;;;;;;;19.48;4.85;;;7.30;99.90;;;;;;4992776;28;20062;-76
2022/09/25 06:00:17;;;;;;;18.13;5.22;;;7.30;99.90;;;;;;4993788;28;20046;-76
2022/09/25 06:02:43;;;;;;;17.50;3.92;;;7.30;99.90;;;;;;4992309;28;20041;-77
2022/09/25 06:05:09;;;;;;;16.45;3.60;;;7.30;99.90;;;;;;4992444;28;20049;-79
2022/09/25 06:07:46;;;;;;;;;;;;;;;;;;;;;
2022/09/25 06:10:18;;;;;;;12.15;3.72;;;7.40;99.90;;;;;;4993647;28;20076;-77
2022/09/25 06:12:44;;;;;;;16.10;3.65;;;7.40;99.90;;;;;;4992040;28;20046;-77
2022/09/25 06:15:10;;;;;;;12.70;3.15;;;7.40;99.90;;;;;;4992494;28;20055;-77
2022/09/25 06:17:36;;;;;;;13.45;2.88;;;7.40;99.90;;;;;;4993088;28;20447;-79
2022/09/25 06:20:02;;;;;;;11.82;3.25;;;7.40;99.90;;;;;;5008659;28;20089;-76
2022/09/25 06:22:28;;;;;;;15.35;3.40;;;7.40;99.90;;;;;;4992337;28;20470;-80
2022/09/25 06:24:54;;;;;;;15.05;3.22;;;7.50;99.90;;;;;;4992404;28;20578;-76
2022/09/25 06:27:19;;;;;;;14.10;3.05;;;7.50;99.90;;;;;;4992641;28;20042;-76
2022/09/25 06:29:45;;;;;;;20.20;4.28;;;7.60;99.90;;;;;;4993436;28;20045;-77
2022/09/25 06:32:12;;;;;;;10.75;3.10;;;7.70;99.90;;;;;;4960192;28;20186;-76
2022/09/25 06:34:37;;;;;;;15.27;3.13;;;7.80;99.90;;;;;;4975707;28;20134;-78
2022/09/25 06:37:03;;;;;;;11.38;3.70;;;7.90;99.90;;;;;;4993928;28;20086;-77
2022/09/25 06:39:32;;;;;;;18.83;4.50;;;8.00;99.90;;;;;;5008269;28;20438;-76
2022/09/25 06:41:57;;;;;;;16.20;2.95;;;8.00;99.90;;;;;;4991992;28;20180;-76
2022/09/25 06:44:23;;;;;;;8.23;2.58;;;8.10;99.90;;;;;;4991836;28;20496;-75
2022/09/25 06:46:50;;;;;;;15.52;3.75;;;8.20;99.90;;;;;;4992667;28;20058;-76
2022/09/25 06:49:16;;;;;;;11.82;2.97;;;8.20;99.90;;;;;;4993200;28;20108;-75
2022/09/25 06:51:42;;;;;;;19.48;3.45;;;8.40;99.90;;;;;;4992858;28;20108;-75
2022/09/25 06:54:08;;;;;;;12.43;3.17;;;8.50;99.90;;;;;;4993565;28;20054;-75
2022/09/25 06:56:34;;;;;;;12.23;3.13;;;8.60;99.90;;;;;;4991895;28;20173;-75
2022/09/25 06:58:59;;;;;;;13.23;2.67;;;8.80;99.90;;;;;;4993301;28;20043;-75
2022/09/25 07:01:25;;;;;;;13.10;2.75;;;8.80;99.90;;;;;;4991939;28;20052;-77
2022/09/25 07:03:51;;;;;;;16.38;3.05;;;8.90;99.90;;;;;;4992773;28;20057;-76
2022/09/25 07:06:22;;;;;;;10.90;3.38;;;9.00;99.90;;;;;;4976527;28;20050;-77
2022/09/25 07:08:49;;;;;;;12.23;2.67;;;9.10;99.90;;;;;;5008519;28;20042;-75
2022/09/25 07:11:20;;;;;;;19.83;3.28;;;9.30;99.90;;;;;;4991585;28;20110;-74
2022/09/25 07:13:53;;;;;;;13.82;2.28;;;9.40;99.90;;;;;;4992830;28;20125;-75
2022/09/25 07:16:21;;;;;;;13.27;2.38;;;9.50;99.90;;;;;;4993232;28;20120;-76
2022/09/25 07:18:47;;;;;;;18.90;3.42;;;9.50;99.90;;;;;;4993207;28;20042;-76
2022/09/25 07:21:15;;;;;;;9.38;2.30;;;9.60;99.90;;;;;;4996423;28;20050;-76
2022/09/25 07:23:42;;;;;;;12.73;2.13;;;9.80;99.90;;;;;;4995180;28;20057;-75
2022/09/25 07:26:10;;;;;;;9.80;2.10;;;10.00;99.90;;;;;;4994939;28;20137;-78
2022/09/25 07:28:37;;;;;;;10.88;2.60;;;10.00;99.90;;;;;;4995949;28;20360;-75
2022/09/25 07:31:21;;;;;;;11.63;2.22;;;10.10;99.90;;;;;;4978660;28;20093;-75
2022/09/25 07:33:47;;;;;;;10.68;2.30;;;10.10;99.90;;;;;;5011344;28;20125;-76
2022/09/25 07:36:14;;;;;;;11.93;2.30;;;10.30;99.90;;;;;;4995135;28;20125;-75
2022/09/25 07:38:41;;;;;;;11.38;2.22;;;10.30;99.90;;;;;;4995958;28;20133;-75
2022/09/25 07:41:12;;;;;;;10.07;1.70;;;10.40;99.90;;;;;;4994717;28;20129;-78
2022/09/25 07:43:38;;;;;;;10.32;2.15;;;10.60;99.90;;;;;;4994329;28;20062;-76
2022/09/25 07:46:05;;;;;;;9.50;1.60;;;10.70;99.90;;;;;;4994595;28;20418;-76
2022/09/25 07:48:31;;;;;;;9.80;1.70;;;10.80;99.90;;;;;;4995661;28;20076;-75
2022/09/25 07:51:01;;;;;;;10.02;1.55;;;10.90;99.90;;;;;;4994492;28;20406;-74
2022/09/25 07:53:27;;;;;;;12.27;1.48;;;11.20;99.90;;;;;;4995466;28;20418;-74
2022/09/25 07:55:59;;;;;;;15.13;1.63;;;11.30;99.90;;;;;;5010751;28;20436;-74
2022/09/25 07:58:25;;;;;;;13.70;1.35;;;11.50;99.90;;;;;;4995166;28;20054;-73
2022/09/25 08:00:53;;;;;;;14.13;2.50;;;11.50;99.90;;;;;;4996329;28;20057;-76
2022/09/25 08:03:20;;;;;;;7.32;1.35;;;11.60;99.90;;;;;;4994210;28;20129;-74
2022/09/25 08:05:46;;;;;;;;;;;11.60;99.90;;;;;;4996114;28;20050;-76
2022/09/25 08:08:11;;;;;;;11.43;1.10;;;11.90;99.90;;;;;;4995822;28;20072;-77
2022/09/25 08:10:37;;;;;;;13.02;1.13;;;12.00;99.90;;;;;;4994730;28;20188;-76
2022/09/25 08:13:03;;;;;;;5.40;1.23;;;11.90;99.90;;;;;;4995340;28;20042;-77
2022/09/25 08:15:29;;;;;;;9.90;1.52;;;12.00;99.90;;;;;;4994739;28;20046;-76
2022/09/25 08:17:54;;;;;;;8.40;1.65;;;12.30;99.90;;;;;;4995370;28;20082;-76
2022/09/25 08:20:20;;;;;;;5.00;0.90;;;12.20;99.90;;;;;;4994763;28;20097;-75
2022/09/25 08:22:46;;;;;;;9.85;1.38;;;12.40;99.90;;;;;;4993531;28;20057;-75
2022/09/25 08:25:12;;;;;;;6.95;0.70;;;12.60;99.90;;;;;;4995226;28;20057;-79
2022/09/25 08:27:39;;;;;;;7.30;0.80;;;12.50;99.90;;;;;;4995025;28;20042;-75
2022/09/25 08:30:10;;;;;;;13.20;1.45;;;12.60;99.90;;;;;;4994961;28;20129;-75
2022/09/25 08:32:36;;;;;;;9.02;1.15;;;12.70;99.90;;;;;;4994690;28;20080;-75
2022/09/25 08:35:03;;;;;;;10.23;1.45;;;12.70;99.90;;;;;;5009781;28;20064;-76
2022/09/25 08:37:30;;;;;;;10.88;1.00;;;12.80;99.90;;;;;;5010252;28;20046;-79
2022/09/25 08:40:00;;;;;;;9.80;1.20;;;12.80;99.90;;;;;;4993660;28;20058;-74
2022/09/25 08:42:31;;;;;;;13.13;1.45;;;13.00;99.90;;;;;;4994226;28;20340;-75
2022/09/25 08:50:40;;;;;;;11.93;0.70;;;13.20;99.90;;;;;;4979854;28;20054;-76
2022/09/25 08:53:25;;;;;;;9.00;0.80;;;13.30;99.90;;;;;;4994177;28;20050;-74
2022/09/25 08:58:41;;;;;;;9.43;0.63;;;13.40;99.90;;;;;;4994809;28;20097;-76
2022/09/25 09:01:13;;;;;;;12.95;0.60;;;13.40;99.90;;;;;;4994200;28;20073;-76
2022/09/25 09:03:51;;;;;;;8.05;1.20;;;13.60;99.90;;;;;;4992952;28;20050;-76
2022/09/25 09:06:17;;;;;;;9.88;1.42;;;13.60;99.90;;;;;;5009731;28;20473;-77
2022/09/25 09:08:59;;;;;;;11.87;0.93;;;13.70;99.90;;;;;;4994650;28;20466;-77
2022/09/25 09:11:41;;;;;;;6.65;0.85;;;13.80;99.90;;;;;;4993983;28;20498;-77
2022/09/25 09:14:15;;;;;;;6.72;0.63;;;14.00;99.90;;;;;;4993153;28;20042;-76
2022/09/25 09:17:02;;;;;;;10.63;0.73;;;14.10;99.90;;;;;;5009674;28;20486;-76
2022/09/25 09:19:28;;;;;;;6.15;0.68;;;14.10;99.90;;;;;;4994086;28;20050;-75
2022/09/25 09:22:10;;;;;;;8.95;0.40;;;14.20;99.90;;;;;;4993039;28;20046;-77
2022/09/25 09:24:45;;;;;;;8.02;0.63;;;14.20;99.90;;;;;;4993782;28;20058;-74
2022/09/25 09:28:01;;;;;;;13.40;0.50;;;14.40;99.90;;;;;;4994071;28;20101;-75
2022/09/25 09:30:27;;;;;;;9.10;0.60;;;14.50;99.90;;;;;;4972066;28;20153;-77
2022/09/25 09:32:54;;;;;;;8.20;0.40;;;14.80;99.90;;;;;;4984080;28;20125;-76
2022/09/25 09:35:44;;;;;;;7.10;0.50;;;14.70;99.90;;;;;;5008868;28;20042;-76
2022/09/25 09:38:16;;;;;;;11.93;0.93;;;14.80;99.90;;;;;;4993110;28;20403;-76
2022/09/25 09:40:42;;;;;;;10.82;0.70;;;14.80;99.90;;;;;;4992557;28;20065;-76
2022/09/25 09:43:30;;;;;;;4.30;0.40;;;14.90;99.90;;;;;;4991173;28;20058;-76
2022/09/25 09:46:44;;;;;;;8.50;0.50;;;15.10;99.90;;;;;;4994031;28;20054;-77
2022/09/25 09:49:35;;;;;;;5.03;0.57;;;15.40;99.90;;;;;;4973343;28;20065;-77
2022/09/25 09:52:13;;;;;;;6.55;0.40;;;15.60;99.90;;;;;;4993190;28;20445;-77
2022/09/25 09:54:48;;;;;;;5.50;0.40;;;15.80;99.90;;;;;;4994174;28;20064;-76
2022/09/25 09:57:25;;;;;;;9.13;0.73;;;15.90;99.90;;;;;;4978048;28;20137;-75
2022/09/25 10:00:00;;;;;;;7.32;0.60;;;15.90;99.90;;;;;;4997144;28;20070;-76
2022/09/25 10:02:36;;;;;;;6.55;0.60;;;15.70;99.90;;;;;;4994846;28;20137;-77
2022/09/25 10:05:08;;;;;;;8.32;0.63;;;15.50;99.90;;;;;;4994829;28;20085;-78
2022/09/25 10:07:37;;;;;;;8.90;0.77;;;15.50;99.90;;;;;;4977368;28;20058;-76
2022/09/25 10:10:13;;;;;;;7.63;0.80;;;15.20;99.90;;;;;;4993251;28;20054;-78
2022/09/25 10:12:50;;;;;;;8.48;0.68;;;14.70;99.90;;;;;;4993499;28;20371;-77
2022/09/25 10:15:37;;;;;;;;;;;14.30;99.90;;;;;;5009076;28;20058;-79
2022/09/25 10:18:05;;;;;;;5.95;0.80;;;13.90;99.90;;;;;;4993766;28;19922;-76
2022/09/25 10:20:44;;;;;;;6.30;0.70;;;13.40;99.90;;;;;;4992396;28;20053;-78
2022/09/25 10:23:29;;;;;;;9.52;0.80;;;13.30;99.90;;;;;;4977974;28;20390;-79
2022/09/25 10:25:54;;;;;;;6.57;0.60;;;13.20;99.90;;;;;;4993784;28;20050;-79
2022/09/25 10:28:35;;;;;;;6.28;0.60;;;13.00;99.90;;;;;;4993532;28;20053;-78
2022/09/25 10:31:04;;;;;;;5.90;0.88;;;12.80;99.90;;;;;;4992567;28;20066;-77
2022/09/25 10:33:32;;;;;;;10.20;0.93;;;12.80;99.90;;;;;;4993048;28;20053;-78
2022/09/25 10:35:58;;;;;;;2.85;0.63;;;12.80;99.90;;;;;;4992971;28;20126;-78
2022/09/25 10:38:33;;;;;;;2.10;0.60;;;12.90;99.90;;;;;;5008447;28;20047;-79
2022/09/25 10:41:10;;;;;;;2.85;0.60;;;13.00;99.90;;;;;;4993409;28;20069;-79
2022/09/25 10:43:53;;;;;;;6.70;0.70;;;13.10;99.90;;;;;;4993659;28;20054;-76
2022/09/25 10:52:08;;;;;;;5.18;0.88;;;13.30;99.90;;;;;;4993757;28;20054;-77
2022/09/25 10:54:35;;;;;;;2.85;0.50;;;13.30;99.90;;;;;;4993595;28;20168;-77
2022/09/25 10:57:12;;;;;;;4.30;0.60;;;13.30;99.90;;;;;;4997611;28;20101;-76
2022/09/25 10:59:51;;;;;;;3.70;0.63;;;13.40;99.90;;;;;;4996608;28;20141;-79
2022/09/25 11:02:45;;;;;;;7.18;1.50;;;13.50;99.90;;;;;;4996889;28;20494;-76
2022/09/25 11:05:18;;;;;;;9.57;1.80;;;13.60;99.90;;;;;;4994144;28;20066;-75
2022/09/25 11:07:51;;;;;;;8.10;1.30;;;13.90;99.90;;;;;;4997165;28;20061;-76
2022/09/25 11:10:34;;;;;;;4.40;0.60;;;14.10;99.90;;;;;;4996314;28;20046;-75
2022/09/25 11:13:07;;;;;;;5.70;0.68;;;14.10;99.90;;;;;;4996574;28;20474;-77
2022/09/25 11:15:35;;;;;;;3.92;0.80;;;14.30;99.90;;;;;;4996571;28;20050;-75
2022/09/25 11:18:02;;;;;;;16.50;1.15;;;14.20;99.90;;;;;;4995520;28;20072;-76
2022/09/25 11:20:29;;;;;;;;;;;14.20;99.90;;;;;;4995938;28;20050;-76
2022/09/25 11:23:07;;;;;;;7.10;0.70;;;14.20;99.90;;;;;;4996327;28;19926;-77
2022/09/25 11:25:41;;;;;;;3.90;0.50;;;14.20;99.90;;;;;;5011931;28;20331;-77
2022/09/25 11:28:30;;;;;;;4.40;0.60;;;14.30;99.90;;;;;;4995263;28;20142;-77
2022/09/25 11:31:06;;;;;;;5.30;0.63;;;14.40;99.90;;;;;;4997691;28;20046;-75
2022/09/25 11:33:46;;;;;;;2.03;0.50;;;14.50;99.90;;;;;;5010838;28;20059;-76
2022/09/25 11:36:23;;;;;;;6.07;0.63;;;14.70;99.90;;;;;;4996404;28;20058;-76
2022/09/25 11:42:24;;;;;;;4.95;0.50;;;15.00;99.90;;;;;;4996961;28;20137;-77
2022/09/25 11:45:08;;;;;;;4.82;0.57;;;15.40;99.90;;;;;;4978348;28;20066;-77
2022/09/25 11:48:04;;;;;;;6.72;1.00;;;15.80;99.90;;;;;;4994950;28;20089;-75
2022/09/25 11:51:45;;;;;;;7.90;0.60;;;16.00;99.90;;;;;;4995160;28;20402;-81
2022/09/25 11:54:37;;;;;;;4.90;0.40;;;16.30;99.90;;;;;;4955323;28;20078;-77
2022/09/25 11:57:18;;;;;;;6.60;1.02;;;16.20;99.90;;;;;;4995838;28;20081;-76
2022/09/25 12:00:06;;;;;;;3.95;0.30;;;15.90;99.90;;;;;;4994583;28;20086;-79
2022/09/25 12:03:09;;;;;;;8.65;0.80;;;15.80;99.90;;;;;;4995998;28;20403;-75
2022/09/25 12:05:53;;;;;;;6.05;0.90;;;15.40;99.90;;;;;;4993704;28;20089;-76
2022/09/25 12:08:49;;;;;;;4.75;1.08;;;14.60;99.90;;;;;;4995648;28;20094;-74
2022/09/25 12:11:44;;;;;;;3.10;0.45;;;14.30;99.90;;;;;;4980894;28;20062;-75
2022/09/25 12:14:19;;;;;;;4.38;0.63;;;13.90;99.90;;;;;;4995830;28;20132;-77
2022/09/25 12:16:51;;;;;;;7.55;0.70;;;13.70;99.90;;;;;;4996114;28;20482;-77
2022/09/25 12:19:51;;;;;;;7.75;0.70;;;13.40;99.90;;;;;;5014850;28;20407;-81
2022/09/25 12:22:54;;;;;;;7.47;0.93;;;13.00;99.90;;;;;;4998730;28;20105;-81
2022/09/25 12:25:39;;;;;;;6.63;1.17;;;12.60;99.90;;;;;;4995688;28;20043;-79
2022/09/25 12:28:23;;;;;;;2.85;0.70;;;12.60;99.90;;;;;;5011234;28;20129;-78
2022/09/25 12:31:15;;;;;;;4.32;0.73;;;12.50;99.90;;;;;;4997554;28;20399;-79
2022/09/25 12:34:07;;;;;;;8.07;1.52;;;12.50;99.90;;;;;;4995957;28;20069;-80
2022/09/25 12:36:41;;;;;;;4.15;1.05;;;12.60;99.90;;;;;;4994019;28;20408;-80
2022/09/25 12:39:49;;;;;;;3.38;0.75;;;12.90;99.90;;;;;;4994401;28;20054;-77
2022/09/25 12:42:39;;;;;;;6.03;1.20;;;13.00;99.90;;;;;;4993155;28;20132;-77
2022/09/25 12:45:24;;;;;;;7.60;1.42;;;13.00;99.90;;;;;;4995581;28;20434;-77
2022/09/25 12:48:23;;;;;;;9.05;2.03;;;13.00;99.90;;;;;;4994469;28;20046;-78
2022/09/25 12:50:48;;;;;;;5.20;1.00;;;13.10;99.90;;;;;;4993973;28;20042;-81
2022/09/25 12:53:47;;;;;;;6.10;0.98;;;13.00;99.90;;;;;;4995089;28;20047;-80
2022/09/25 12:56:18;;;;;;;8.13;1.33;;;13.10;99.90;;;;;;4994671;28;20147;-76
2022/09/25 12:58:49;;;;;;;6.93;1.25;;;13.10;99.90;;;;;;4995411;28;20407;-77
2022/09/25 13:01:25;;;;;;;7.97;0.95;;;13.10;99.90;;;;;;4994931;28;20133;-78
2022/09/25 13:04:02;;;;;;;7.00;1.15;;;13.20;99.90;;;;;;4994873;28;20050;-77
2022/09/25 13:06:45;;;;;;;5.38;0.60;;;13.30;99.90;;;;;;4994923;28;20061;-76
2022/09/25 13:09:34;;;;;;;3.42;0.70;;;13.40;99.90;;;;;;4994186;28;20374;-79
2022/09/25 13:12:17;;;;;;;6.90;0.70;;;13.30;99.90;;;;;;4993710;28;20141;-77
2022/09/25 13:15:07;;;;;;;3.03;0.55;;;13.40;99.90;;;;;;4993365;28;20129;-78
2022/09/25 13:17:34;;;;;;;5.32;0.47;;;13.30;99.90;;;;;;4991451;28;20066;-78
2022/09/25 13:20:25;;;;;;;5.78;0.90;;;13.30;99.90;;;;;;4994383;28;20100;-78
2022/09/25 13:23:13;;;;;;;4.55;0.80;;;13.30;99.90;;;;;;5009378;28;20343;-78
2022/09/25 13:25:57;;;;;;;4.93;0.70;;;13.30;99.90;;;;;;4994369;28;20047;-82
2022/09/25 13:28:27;;;;;;;5.78;0.73;;;13.40;99.90;;;;;;4994858;28;20072;-81
2022/09/25 13:31:21;;;;;;;3.60;0.60;;;13.40;99.90;;;;;;4994837;28;20446;-81
2022/09/25 13:33:52;;;;;;;3.20;0.65;;;13.50;99.90;;;;;;4993889;28;20088;-81
2022/09/25 13:36:22;;;;;;;3.00;0.63;;;13.40;99.90;;;;;;4994792;28;20366;-80
2022/09/25 13:41:48;;;;;;;3.00;0.80;;;13.50;99.90;;;;;;4994759;28;20195;-81
2022/09/25 13:44:42;;;;;;;4.15;0.77;;;13.60;99.90;;;;;;4993702;28;20058;-81
2022/09/25 13:47:23;;;;;;;5.45;0.80;;;13.80;99.90;;;;;;4992278;28;20050;-81
2022/09/25 13:50:14;;;;;;;4.07;0.60;;;13.80;99.90;;;;;;4994683;28;20370;-80
2022/09/25 13:52:40;;;;;;;5.30;0.60;;;13.80;99.90;;;;;;4984770;28;20054;-80